Time;durP1;ratioP1;P1;durP2;ratioP2;P2;SDS_P1;SDS_P2;PMS_P1;PMS_P2;Temp;Humidity;BMP_temperature;BMP_pressure;BME280_temperature;BME280_humidity;BME280_pressure;Samples;Min_cycle;Max_cycle;Signal;HPM_P1;HPM_P2
2021/12/13 00:02:23;;;;;;;98.10;33.70;;;;;;;-5.61;97.79;100209.39;103939;1310;24144;-26
2021/12/13 00:04:55;;;;;;;108.60;34.60;;;;;;;-5.49;97.47;100215.80;104040;1313;24255;-29
2021/12/13 00:07:24;;;;;;;117.90;34.30;;;;;;;-5.41;97.61;100217.34;104005;1314;22626;-30
2021/12/13 00:09:52;;;;;;;102.60;34.50;;;;;;;-5.31;98.10;100217.01;104071;1310;24145;-29
2021/12/13 00:12:22;;;;;;;98.60;31.70;;;;;;;-5.26;97.54;100219.55;103857;1313;22442;-29
2021/12/13 00:14:50;;;;;;;94.90;30.10;;;;;;;-5.14;97.38;100221.91;104155;1311;22538;-29
2021/12/13 00:17:20;;;;;;;65.80;23.20;;;;;;;-4.91;97.79;100225.45;104243;1314;22443;-26
2021/12/13 00:19:59;;;;;;;140.10;39.70;;;;;;;-4.63;97.82;100215.64;104229;1307;22466;-26
2021/12/13 00:22:33;;;;;;;98.60;33.70;;;;;;;-4.54;96.68;100210.27;104030;1306;24201;-30
2021/12/13 00:25:05;;;;;;;95.70;34.70;;;;;;;-4.47;96.46;100207.10;104024;1313;22472;-26
2021/12/13 00:27:30;;;;;;;126.90;35.20;;;;;;;-4.48;95.86;100200.66;104140;1314;24317;-26
2021/12/13 00:30:04;;;;;;;73.70;27.40;;;;;;;-4.46;95.85;100200.39;103852;1311;22713;-27
2021/12/13 00:32:37;;;;;;;91.80;34.10;;;;;;;-4.43;95.96;100199.20;104069;1310;24125;-26
2021/12/13 00:35:07;;;;;;;165.50;41.00;;;;;;;-4.39;96.01;100196.36;104085;1306;23993;-26
2021/12/13 00:37:38;;;;;;;137.40;37.20;;;;;;;-4.34;95.63;100196.80;103938;1310;22612;-27
2021/12/13 00:40:09;;;;;;;113.90;30.00;;;;;;;-4.31;95.56;100197.66;104011;1310;24151;-26
2021/12/13 00:42:38;;;;;;;154.00;40.80;;;;;;;-4.25;95.48;100197.03;103783;1307;24132;-30
2021/12/13 00:45:08;;;;;;;122.30;36.70;;;;;;;-4.20;95.43;100199.39;104077;1314;22467;-26
2021/12/13 00:47:35;;;;;;;155.90;39.50;;;;;;;-4.21;95.45;100200.31;104240;1310;24339;-26
2021/12/13 00:50:08;;;;;;;167.80;42.60;;;;;;;-4.21;95.30;100199.41;104129;1314;22482;-26
2021/12/13 00:52:34;;;;;;;118.80;33.60;;;;;;;-4.20;95.27;100202.88;104143;1314;22462;-30
2021/12/13 00:55:00;;;;;;;88.50;32.40;;;;;;;-4.17;95.46;100211.27;103896;1314;22586;-30
2021/12/13 00:57:48;;;;;;;73.90;26.40;;;;;;;-4.10;95.39;100204.08;103872;1314;22464;-27
2021/12/13 01:00:20;;;;;;;89.50;30.60;;;;;;;-3.97;95.82;100202.15;104168;1314;24265;-30
2021/12/13 01:02:50;;;;;;;80.70;30.30;;;;;;;-3.85;95.94;100198.98;104207;1314;22733;-30
2021/12/13 01:05:17;;;;;;;75.10;28.40;;;;;;;-3.74;96.13;100206.10;104050;1313;22433;-26
2021/12/13 01:08:00;;;;;;;66.50;30.10;;;;;;;-3.62;96.34;100203.52;104087;1306;24367;-26
2021/12/13 01:10:28;;;;;;;82.90;30.10;;;;;;;-3.47;96.51;100204.58;103987;1314;22453;-30
2021/12/13 01:12:55;;;;;;;80.60;29.70;;;;;;;-3.38;96.57;100200.89;104161;1304;22584;-27
2021/12/13 01:15:31;;;;;;;81.30;29.20;;;;;;;-3.32;96.26;100201.08;104023;1307;22531;-30
2021/12/13 01:18:16;;;;;;;80.70;30.50;;;;;;;-3.22;96.31;100197.19;104025;1308;25255;-30
2021/12/13 01:20:58;;;;;;;;;;;;;;;-3.09;96.15;100199.35;104018;1314;22843;-26
2021/12/13 01:23:40;;;;;;;83.30;29.30;;;;;;;-2.95;95.82;100195.02;103973;1307;22449;-30
2021/12/13 01:26:26;;;;;;;63.90;26.60;;;;;;;-2.88;95.83;100196.90;104326;1314;22460;-30
2021/12/13 01:28:56;;;;;;;75.00;27.80;;;;;;;-2.85;95.80;100199.34;104062;1314;22952;-26
2021/12/13 01:31:28;;;;;;;78.90;27.40;;;;;;;-2.89;95.43;100198.52;104067;1313;22439;-26
2021/12/13 01:33:54;;;;;;;69.40;27.20;;;;;;;-2.86;95.25;100199.96;104082;1315;25724;-27
2021/12/13 01:36:25;;;;;;;61.60;25.60;;;;;;;-2.84;94.82;100197.02;104234;1310;24290;-26
2021/12/13 01:38:56;;;;;;;77.30;27.40;;;;;;;-2.76;94.89;100191.45;104161;1298;22962;-30
2021/12/13 01:41:29;;;;;;;52.40;23.10;;;;;;;-2.73;94.56;100184.45;104187;1314;24154;-30
2021/12/13 01:43:59;;;;;;;70.40;27.00;;;;;;;-2.68;94.46;100189.79;104155;1314;22894;-27
2021/12/13 01:46:26;;;;;;;91.30;26.20;;;;;;;-2.63;94.54;100190.70;104137;1314;24253;-30
2021/12/13 01:48:52;;;;;;;63.30;25.70;;;;;;;-2.63;94.43;100191.02;103947;1305;25298;-26
2021/12/13 01:51:21;;;;;;;81.00;25.60;;;;;;;-2.62;94.46;100191.48;103969;1307;22472;-30
2021/12/13 01:54:09;;;;;;;74.60;27.90;;;;;;;-2.57;94.79;100195.05;104174;1313;24109;-30
2021/12/13 01:56:46;;;;;;;56.00;23.60;;;;;;;-2.49;94.66;100192.84;104096;1314;22842;-30
2021/12/13 01:59:40;;;;;;;70.00;28.30;;;;;;;-2.57;94.48;100191.90;103873;1314;22818;-26
2021/12/13 02:02:10;;;;;;;80.50;27.60;;;;;;;-2.59;94.73;100191.50;103982;1313;24133;-26
2021/12/13 02:04:36;;;;;;;60.30;24.90;;;;;;;-2.58;94.72;100188.31;103972;1314;22458;-30
2021/12/13 02:07:03;;;;;;;64.80;25.00;;;;;;;-2.62;94.74;100185.38;104080;1304;22730;-29
2021/12/13 02:09:33;;;;;;;71.20;25.60;;;;;;;-2.56;94.77;100188.20;104085;1307;22828;-30
2021/12/13 02:12:00;;;;;;;61.90;24.60;;;;;;;-2.53;95.02;100188.14;104071;1314;22424;-27
2021/12/13 02:14:29;;;;;;;71.80;23.50;;;;;;;-2.48;94.79;100186.30;104087;1314;22437;-26
2021/12/13 02:19:32;;;;;;;51.40;21.70;;;;;;;-2.31;95.22;100187.34;104130;1314;22844;-27
2021/12/13 02:22:05;;;;;;;54.00;23.20;;;;;;;-2.22;94.43;100184.69;104017;1305;22471;-30
2021/12/13 02:24:30;;;;;;;79.10;26.50;;;;;;;-2.21;94.29;100184.61;104163;1314;24177;-26
2021/12/13 02:26:58;;;;;;;68.50;24.60;;;;;;;-2.21;94.23;100183.90;104102;1314;22468;-30
2021/12/13 02:29:34;;;;;;;66.60;25.60;;;;;;;-2.25;94.07;100183.63;104082;1313;24130;-26
2021/12/13 02:32:00;;;;;;;63.50;26.20;;;;;;;-2.20;94.11;100183.48;104111;1314;22440;-26
2021/12/13 02:34:29;;;;;;;72.10;29.50;;;;;;;-2.27;94.11;100176.52;103980;1314;24151;-26
2021/12/13 02:36:57;;;;;;;71.00;26.10;;;;;;;-2.24;93.86;100175.98;104107;1314;23850;-26
2021/12/13 02:39:26;;;;;;;59.60;25.50;;;;;;;-2.26;93.30;100171.43;104107;1313;22782;-30
2021/12/13 02:41:52;;;;;;;68.10;25.50;;;;;;;-2.27;92.72;100170.21;104034;1313;24398;-30
2021/12/13 02:44:23;;;;;;;66.40;24.30;;;;;;;-2.34;92.48;100170.66;104127;1311;22461;-30
2021/12/13 02:46:50;;;;;;;76.90;25.50;;;;;;;-2.40;92.79;100168.02;104077;1307;22685;-30
2021/12/13 02:49:17;;;;;;;77.00;28.60;;;;;;;-2.40;93.16;100167.19;104067;1314;22472;-26
2021/12/13 02:51:47;;;;;;;72.60;27.30;;;;;;;-2.38;93.32;100167.59;103965;1305;22476;-30
2021/12/13 02:54:18;;;;;;;73.70;27.20;;;;;;;-2.35;93.49;100162.33;104015;1314;22478;-30
2021/12/13 02:56:48;;;;;;;53.60;20.70;;;;;;;-2.34;93.43;100166.33;104092;1313;22994;-27
2021/12/13 02:59:15;;;;;;;60.80;27.00;;;;;;;-2.35;93.22;100163.52;104110;1307;24230;-30
2021/12/13 03:01:46;;;;;;;56.90;25.20;;;;;;;-2.29;93.58;100165.67;104081;1314;24328;-30
2021/12/13 03:04:15;;;;;;;66.00;26.50;;;;;;;-2.28;93.11;100165.55;104004;1314;22818;-30
2021/12/13 03:06:45;;;;;;;50.00;21.50;;;;;;;-2.27;93.19;100168.86;104045;1314;24162;-27
2021/12/13 03:09:15;;;;;;;65.50;26.80;;;;;;;-2.31;92.76;100177.86;103913;1307;24348;-26
2021/12/13 03:11:41;;;;;;;70.70;25.20;;;;;;;-2.23;93.13;100185.29;104071;1314;22450;-30
2021/12/13 03:14:12;;;;;;;96.60;28.40;;;;;;;-2.11;93.51;100186.92;103935;1314;22443;-26
2021/12/13 03:16:42;;;;;;;57.80;25.70;;;;;;;-1.92;93.63;100184.12;104000;1314;22487;-30
2021/12/13 03:19:11;;;;;;;66.40;29.50;;;;;;;-1.91;93.02;100179.49;103714;1313;23615;-27
2021/12/13 03:21:46;;;;;;;80.00;26.70;;;;;;;-1.98;93.25;100181.05;103980;1311;25106;-30
2021/12/13 03:24:16;;;;;;;65.90;29.40;;;;;;;-1.99;93.27;100184.77;104005;1311;22438;-30
2021/12/13 03:26:50;;;;;;;69.60;28.40;;;;;;;-1.93;93.55;100187.36;103909;1315;22512;-30
2021/12/13 03:29:19;;;;;;;67.00;28.00;;;;;;;-1.84;93.46;100192.98;104121;1314;24263;-30
2021/12/13 03:31:53;;;;;;;60.20;27.00;;;;;;;-1.88;93.12;100189.37;104102;1314;22675;-26
2021/12/13 03:34:22;;;;;;;60.00;25.10;;;;;;;-1.85;93.21;100192.87;103964;1307;22472;-30
2021/12/13 03:36:51;;;;;;;76.20;27.50;;;;;;;-1.80;92.50;100194.48;104123;1308;22591;-30
2021/12/13 03:39:22;;;;;;;55.90;24.60;;;;;;;-1.76;92.98;100192.44;104073;1314;22449;-30
2021/12/13 03:41:49;;;;;;;71.50;24.70;;;;;;;-1.66;93.12;100193.21;104097;1314;22769;-30
2021/12/13 03:44:19;;;;;;;59.10;23.90;;;;;;;-1.58;92.72;100190.95;104091;1314;22735;-26
2021/12/13 03:46:46;;;;;;;63.50;28.90;;;;;;;-1.55;92.93;100192.50;104106;1314;22633;-26
2021/12/13 03:49:12;;;;;;;73.40;28.70;;;;;;;-1.53;92.90;100193.94;103887;1313;24162;-26
2021/12/13 03:51:40;;;;;;;65.30;25.80;;;;;;;-1.52;92.98;100194.06;104120;1305;22439;-30
2021/12/13 03:54:08;;;;;;;60.70;26.30;;;;;;;-1.54;92.57;100196.63;104018;1314;22568;-30
2021/12/13 03:56:37;;;;;;;71.80;27.60;;;;;;;-1.60;92.60;100197.19;104042;1314;24347;-30
2021/12/13 03:59:06;;;;;;;67.10;24.70;;;;;;;-1.59;92.48;100199.64;103695;1308;471023;-30
2021/12/13 04:01:40;;;;;;;62.90;25.90;;;;;;;-1.56;92.73;100196.05;104015;1314;24161;-26
2021/12/13 04:04:10;;;;;;;71.60;23.80;;;;;;;-1.55;92.50;100197.38;104116;1307;24203;-30
2021/12/13 04:06:42;;;;;;;67.10;28.60;;;;;;;-1.57;92.55;100199.27;104021;1304;24189;-26
2021/12/13 04:09:08;;;;;;;78.50;27.20;;;;;;;-1.58;92.49;100199.00;104044;1314;22459;-26
2021/12/13 04:11:34;;;;;;;71.00;26.70;;;;;;;-1.58;92.50;100198.48;104011;1313;24133;-29
2021/12/13 04:14:08;;;;;;;67.30;26.10;;;;;;;-1.53;92.30;100200.09;103915;1314;24354;-27
2021/12/13 04:16:47;;;;;;;;;;;;;;;-1.54;91.71;100195.95;104031;1316;24260;-30
2021/12/13 04:19:16;;;;;;;64.80;26.80;;;;;;;-1.48;92.40;100189.92;104042;1314;24138;-26
2021/12/13 04:21:44;;;;;;;65.70;24.30;;;;;;;-1.44;92.17;100192.27;103978;1314;24156;-27
2021/12/13 04:24:16;;;;;;;59.40;25.30;;;;;;;-1.44;92.02;100189.33;104074;1313;24175;-30
2021/12/13 04:26:46;;;;;;;75.30;27.50;;;;;;;-1.41;92.43;100188.44;103969;1314;22461;-30
2021/12/13 04:29:16;;;;;;;65.90;26.70;;;;;;;-1.44;92.24;100185.05;103882;1313;22463;-30
2021/12/13 04:31:42;;;;;;;72.30;26.60;;;;;;;-1.47;92.45;100185.27;103969;1308;22491;-30
2021/12/13 04:34:08;;;;;;;85.30;28.90;;;;;;;-1.44;92.03;100187.19;104115;1314;22531;-30
2021/12/13 04:36:37;;;;;;;49.70;23.70;;;;;;;-1.49;92.22;100181.52;103930;1313;22461;-30
2021/12/13 04:39:07;;;;;;;53.60;25.70;;;;;;;-1.50;91.95;100184.83;104083;1313;22436;-30
2021/12/13 04:41:34;;;;;;;59.00;25.00;;;;;;;-1.55;91.60;100186.36;103923;1314;22504;-30
2021/12/13 04:44:04;;;;;;;61.10;26.10;;;;;;;-1.54;91.96;100189.61;103930;1313;22594;-30
2021/12/13 04:46:31;;;;;;;79.70;29.90;;;;;;;-1.53;91.56;100190.09;104094;1314;24269;-26
2021/12/13 04:49:01;;;;;;;65.40;27.20;;;;;;;-1.52;91.46;100190.16;104110;1313;24316;-26
2021/12/13 04:51:29;;;;;;;67.20;25.30;;;;;;;-1.45;92.05;100187.79;104068;1314;24120;-26
2021/12/13 04:53:57;;;;;;;65.20;27.00;;;;;;;-1.41;91.18;100188.92;104117;1314;24261;-29
2021/12/13 04:56:26;;;;;;;63.10;27.20;;;;;;;-1.50;91.40;100193.38;103991;1304;22462;-30
2021/12/13 04:58:52;;;;;;;67.80;29.70;;;;;;;-1.54;91.31;100187.88;103972;1314;22920;-30
2021/12/13 05:01:19;;;;;;;60.90;26.90;;;;;;;-1.62;91.65;100189.10;104092;1313;24151;-26
2021/12/13 05:03:47;;;;;;;67.30;29.70;;;;;;;-1.63;91.97;100189.35;103955;1314;24384;-26
2021/12/13 05:06:16;;;;;;;73.20;30.30;;;;;;;-1.58;92.20;100190.21;103880;1316;22484;-26
2021/12/13 05:08:44;;;;;;;76.20;28.90;;;;;;;-1.55;91.43;100193.36;104020;1307;24135;-30
2021/12/13 05:11:10;;;;;;;69.50;28.90;;;;;;;-1.63;91.45;100198.11;104199;1305;22805;-30
2021/12/13 05:13:39;;;;;;;55.60;26.60;;;;;;;-1.59;92.02;100200.34;104147;1310;22763;-26
2021/12/13 05:16:09;;;;;;;66.50;25.20;;;;;;;-1.55;91.92;100200.56;103963;1314;22838;-30
2021/12/13 05:18:42;;;;;;;71.90;26.00;;;;;;;-1.50;92.47;100196.17;104088;1314;22560;-26
2021/12/13 05:21:10;;;;;;;60.10;26.10;;;;;;;-1.44;92.09;100204.21;104126;1314;23857;-26
2021/12/13 05:23:46;;;;;;;78.00;31.10;;;;;;;-1.47;92.32;100204.74;104075;1305;24271;-26
2021/12/13 05:26:12;;;;;;;63.20;26.90;;;;;;;-1.52;91.49;100208.46;104176;1314;24110;-30
2021/12/13 05:28:44;;;;;;;69.90;30.90;;;;;;;-1.60;91.49;100209.84;103942;1314;24299;-30
2021/12/13 05:31:12;;;;;;;62.00;26.90;;;;;;;-1.63;92.63;100212.15;104233;1314;22809;-30
2021/12/13 05:33:40;;;;;;;60.30;26.30;;;;;;;-1.55;91.99;100218.82;104129;1314;24144;-30
2021/12/13 05:36:09;;;;;;;66.90;26.00;;;;;;;-1.55;91.48;100219.02;104130;1307;22549;-29
2021/12/13 05:38:41;;;;;;;55.30;25.00;;;;;;;-1.57;91.66;100223.71;103836;1314;22610;-26
2021/12/13 05:41:09;;;;;;;61.50;24.60;;;;;;;-1.51;91.69;100224.76;103994;1314;24294;-26
2021/12/13 05:43:48;;;;;;;65.20;28.40;;;;;;;-1.50;91.96;100230.60;104005;1308;24132;-26
2021/12/13 05:46:17;;;;;;;84.90;32.10;;;;;;;-1.52;92.10;100229.16;104137;1305;24288;-26
2021/12/13 05:48:50;;;;;;;83.00;34.20;;;;;;;-1.53;92.28;100233.63;104186;1307;22730;-30
2021/12/13 05:51:20;;;;;;;97.20;30.40;;;;;;;-1.57;92.38;100237.38;104087;1315;22580;-26
2021/12/13 05:53:47;;;;;;;70.10;28.80;;;;;;;-1.53;92.19;100235.21;104133;1315;24174;-26
2021/12/13 05:56:16;;;;;;;68.70;29.00;;;;;;;-1.52;92.63;100238.83;104121;1314;24110;-30
2021/12/13 05:58:46;;;;;;;64.70;27.10;;;;;;;-1.47;92.91;100240.08;103994;1304;22751;-26
2021/12/13 06:01:16;;;;;;;78.70;30.00;;;;;;;-1.42;92.68;100239.25;103987;1313;22460;-30
2021/12/13 06:03:49;;;;;;;74.20;31.40;;;;;;;-1.35;92.48;100244.04;104161;1314;22775;-26
2021/12/13 06:06:15;;;;;;;69.40;28.20;;;;;;;-1.24;92.29;100241.74;104015;1315;23908;-30
2021/12/13 06:08:51;;;;;;;56.50;24.70;;;;;;;-1.21;92.39;100245.77;104217;1315;24262;-30
2021/12/13 06:11:21;;;;;;;70.90;31.30;;;;;;;-1.17;92.39;100246.72;104149;1308;24190;-30
2021/12/13 06:13:53;;;;;;;66.90;30.40;;;;;;;-1.15;92.67;100246.47;104160;1313;24188;-26
2021/12/13 06:16:30;;;;;;;81.90;32.20;;;;;;;-1.10;92.62;100251.05;104111;1305;22592;-30
2021/12/13 06:19:03;;;;;;;70.70;29.40;;;;;;;-1.12;92.34;100255.06;103894;1310;24209;-30
2021/12/13 06:21:38;;;;;;;81.70;31.30;;;;;;;-1.12;92.68;100255.77;104197;1316;22775;-30
2021/12/13 06:24:04;;;;;;;76.00;29.30;;;;;;;-1.11;92.25;100255.14;104201;1316;22593;-26
2021/12/13 06:26:33;;;;;;;57.10;22.60;;;;;;;-1.19;92.13;100254.98;104175;1314;24146;-27
2021/12/13 06:29:00;;;;;;;69.40;27.20;;;;;;;-1.17;92.20;100253.75;104111;1314;24380;-30
2021/12/13 06:31:33;;;;;;;75.10;28.20;;;;;;;-1.11;92.20;100253.55;104026;1315;24252;-26
2021/12/13 06:34:01;;;;;;;88.70;31.50;;;;;;;-1.14;92.17;100257.08;103924;1309;23843;-26
2021/12/13 06:36:29;;;;;;;74.30;30.70;;;;;;;-1.09;92.46;100261.17;104307;1305;22447;-30
2021/12/13 06:38:57;;;;;;;79.10;32.80;;;;;;;-1.15;92.44;100262.81;103957;1316;24163;-26
2021/12/13 06:41:27;;;;;;;81.00;33.00;;;;;;;-1.20;92.88;100265.02;104153;1310;22796;-26
2021/12/13 06:43:54;;;;;;;76.70;34.10;;;;;;;-1.20;93.39;100268.38;104150;1314;22689;-26
2021/12/13 06:46:31;;;;;;;76.10;31.40;;;;;;;-1.15;93.46;100271.77;104124;1314;22449;-27
2021/12/13 06:48:59;;;;;;;91.70;34.20;;;;;;;-1.14;93.98;100275.01;103978;1316;22548;-30
2021/12/13 06:51:32;;;;;;;79.60;32.90;;;;;;;-1.09;93.88;100277.53;104010;1314;24137;-30
2021/12/13 06:54:00;;;;;;;93.30;42.00;;;;;;;-0.99;94.02;100279.63;104161;1314;23913;-25
2021/12/13 06:56:28;;;;;;;75.50;32.60;;;;;;;-0.97;93.92;100278.59;104142;1302;22959;-30
2021/12/13 06:58:58;;;;;;;95.80;36.00;;;;;;;-0.92;93.77;100276.91;104093;1313;24241;-25
2021/12/13 07:01:28;;;;;;;103.90;35.50;;;;;;;-0.90;94.02;100278.71;103879;1315;22610;-25
2021/12/13 07:03:57;;;;;;;90.70;33.40;;;;;;;-0.86;93.88;100283.59;103993;1306;24260;-30
2021/12/13 07:06:23;;;;;;;109.00;42.10;;;;;;;-0.86;94.14;100282.66;104138;1305;22462;-25
2021/12/13 07:09:04;;;;;;;81.00;32.70;;;;;;;-0.86;94.09;100282.16;104091;1316;22471;-25
2021/12/13 07:11:41;;;;;;;69.80;29.80;;;;;;;-0.87;93.95;100282.94;103786;1314;24246;-25
2021/12/13 07:14:09;;;;;;;62.60;27.20;;;;;;;-0.91;94.06;100283.16;104085;1314;24132;-29
2021/12/13 07:16:38;;;;;;;71.90;31.20;;;;;;;-0.91;94.10;100285.11;104005;1310;24151;-25
2021/12/13 07:19:11;;;;;;;87.80;29.20;;;;;;;-0.91;94.47;100288.44;103875;1316;22464;-25
2021/12/13 07:21:42;;;;;;;71.30;31.10;;;;;;;-0.83;94.51;100289.16;103864;1316;22790;-25
2021/12/13 07:24:09;;;;;;;76.60;31.70;;;;;;;-0.75;94.74;100291.46;103891;1314;22472;-30
2021/12/13 07:26:44;;;;;;;74.40;32.70;;;;;;;-0.73;94.62;100297.29;104049;1314;24306;-30
2021/12/13 07:29:15;;;;;;;102.90;42.50;;;;;;;-0.70;94.47;100304.48;103846;1313;24154;-26
2021/12/13 07:31:42;;;;;;;129.80;42.40;;;;;;;-0.70;94.86;100305.16;104093;1316;23857;-30
2021/12/13 07:34:13;;;;;;;137.50;45.70;;;;;;;-0.70;94.73;100306.89;103932;1316;24190;-26
2021/12/13 07:36:39;;;;;;;88.90;32.60;;;;;;;-0.74;94.74;100308.90;104111;1308;24177;-25
2021/12/13 07:39:11;;;;;;;156.50;62.60;;;;;;;-0.71;94.52;100311.58;104201;1314;22810;-30
2021/12/13 07:41:41;;;;;;;153.70;61.40;;;;;;;-0.71;94.50;100315.23;104207;1314;24222;-25
2021/12/13 07:44:12;;;;;;;93.50;41.80;;;;;;;-0.67;94.78;100319.02;104120;1313;24273;-25
2021/12/13 07:46:38;;;;;;;94.90;38.60;;;;;;;-0.67;94.79;100326.10;104076;1314;24193;-25
2021/12/13 07:49:08;;;;;;;87.10;38.90;;;;;;;-0.71;94.66;100329.30;103956;1314;22449;-30
2021/12/13 07:51:35;;;;;;;96.20;38.50;;;;;;;-0.72;95.04;100329.59;104009;1315;22679;-25
2021/12/13 07:54:05;;;;;;;88.20;39.10;;;;;;;-0.73;95.38;100326.45;104173;1314;24137;-25
2021/12/13 07:56:31;;;;;;;179.80;52.40;;;;;;;-0.65;95.60;100325.95;104028;1307;22442;-30
2021/12/13 07:59:03;;;;;;;217.80;65.70;;;;;;;-0.50;95.41;100323.68;103777;1307;24368;-30
2021/12/13 08:01:30;;;;;;;161.60;55.80;;;;;;;-0.45;94.93;100329.68;103939;1314;24182;-30
2021/12/13 08:03:59;;;;;;;187.50;71.70;;;;;;;-0.46;94.75;100328.36;103798;1314;24171;-25
2021/12/13 08:06:29;;;;;;;115.50;47.10;;;;;;;-0.50;94.93;100332.64;104037;1314;22435;-25
2021/12/13 08:08:57;;;;;;;158.70;61.80;;;;;;;-0.53;95.23;100330.55;104121;1314;22463;-30
2021/12/13 08:11:30;;;;;;;181.00;70.20;;;;;;;-0.52;95.53;100329.95;104266;1315;22740;-26
2021/12/13 08:13:57;;;;;;;163.30;61.10;;;;;;;-0.49;95.40;100332.40;104094;1311;22589;-26
2021/12/13 08:16:28;;;;;;;105.00;43.30;;;;;;;-0.43;95.37;100333.75;104060;1315;22516;-25
2021/12/13 08:19:01;;;;;;;85.70;38.80;;;;;;;-0.38;95.23;100330.48;104137;1316;22462;-30
2021/12/13 08:21:27;;;;;;;76.90;32.90;;;;;;;-0.35;95.45;100333.06;104062;1315;24289;-30
2021/12/13 08:23:57;;;;;;;97.80;35.20;;;;;;;-0.29;95.45;100337.59;104128;1314;24264;-24
2021/12/13 08:26:26;;;;;;;91.10;39.30;;;;;;;-0.26;95.49;100338.93;104168;1315;24169;-26
2021/12/13 08:28:53;;;;;;;87.90;34.10;;;;;;;-0.22;95.95;100340.63;104158;1316;24156;-25
2021/12/13 08:31:23;;;;;;;77.20;37.00;;;;;;;-0.13;96.20;100344.60;104181;1308;22718;-30
2021/12/13 08:33:52;;;;;;;88.60;33.20;;;;;;;-0.03;96.02;100347.58;104087;1316;22886;-25
2021/12/13 08:36:22;;;;;;;85.30;34.60;;;;;;;0.06;95.82;100349.26;104203;1316;22500;-30
2021/12/13 08:38:51;;;;;;;173.80;66.30;;;;;;;0.15;95.60;100349.16;104128;1315;24213;-30
2021/12/13 08:41:18;;;;;;;175.80;70.50;;;;;;;0.16;95.26;100347.52;103944;1315;22674;-25
2021/12/13 08:43:50;;;;;;;160.20;71.10;;;;;;;0.18;95.13;100346.13;104124;1316;24265;-30
2021/12/13 08:46:40;;;;;;;173.40;88.20;;;;;;;0.22;95.27;100343.77;104152;1311;24080;-25
2021/12/13 08:49:14;;;;;;;111.90;48.70;;;;;;;0.28;95.09;100344.23;104160;1311;22460;-25
2021/12/13 08:51:48;;;;;;;107.60;45.30;;;;;;;0.40;94.96;100343.86;104194;1316;24258;-25
2021/12/13 08:54:15;;;;;;;112.60;51.80;;;;;;;0.44;94.88;100347.83;104138;1314;22738;-30
2021/12/13 08:56:45;;;;;;;83.70;35.10;;;;;;;0.49;95.32;100346.59;104061;1305;22443;-25
2021/12/13 08:59:20;;;;;;;85.50;36.70;;;;;;;0.56;95.04;100343.30;103862;1314;24266;-30
2021/12/13 09:01:49;;;;;;;90.50;37.20;;;;;;;0.72;95.40;100343.92;104059;1308;24147;-25
2021/12/13 09:04:20;;;;;;;72.50;29.00;;;;;;;0.85;95.31;100343.48;103828;1314;24299;-26
2021/12/13 09:06:49;;;;;;;106.60;39.20;;;;;;;0.85;95.23;100340.81;103853;1314;22498;-25
2021/12/13 09:09:17;;;;;;;119.50;46.50;;;;;;;0.85;95.34;100343.34;103981;1315;24158;-25
2021/12/13 09:11:45;;;;;;;126.20;50.90;;;;;;;0.82;95.24;100345.16;104034;1315;24240;-30
2021/12/13 09:14:15;;;;;;;96.80;41.70;;;;;;;0.84;95.77;100346.59;104000;1316;22549;-25
2021/12/13 09:16:54;;;;;;;94.40;43.00;;;;;;;0.94;95.74;100352.39;104154;1310;24381;-30
2021/12/13 09:19:26;;;;;;;75.40;34.40;;;;;;;0.95;95.15;100351.61;104106;1313;24136;-25
2021/12/13 09:21:54;;;;;;;89.10;36.30;;;;;;;1.04;95.21;100348.30;104093;1314;22500;-30
2021/12/13 09:24:24;;;;;;;85.90;35.80;;;;;;;1.08;95.12;100354.54;104047;1314;22796;-30
2021/12/13 09:26:50;;;;;;;93.40;33.90;;;;;;;1.11;95.09;100351.30;103984;1315;24294;-25
2021/12/13 09:29:17;;;;;;;81.10;35.90;;;;;;;1.21;94.85;100350.94;104175;1316;22472;-30
2021/12/13 09:31:42;;;;;;;77.00;31.10;;;;;;;1.10;95.05;100352.95;104219;1313;24186;-26
2021/12/13 09:34:13;;;;;;;72.10;34.40;;;;;;;1.14;94.85;100352.86;103821;1314;22718;-30
2021/12/13 09:36:40;;;;;;;77.30;31.80;;;;;;;1.01;94.53;100351.15;104075;1316;25338;-30
2021/12/13 09:39:08;;;;;;;96.90;34.70;;;;;;;0.97;95.11;100348.41;104142;1314;24594;-30
2021/12/13 09:41:38;;;;;;;68.30;28.70;;;;;;;1.04;95.07;100345.11;104066;1314;22442;-25
2021/12/13 09:44:06;;;;;;;80.60;31.40;;;;;;;1.19;95.43;100342.24;104138;1314;24146;-30
2021/12/13 09:46:39;;;;;;;67.30;29.70;;;;;;;1.23;94.58;100340.88;104082;1305;24243;-25
2021/12/13 09:49:10;;;;;;;68.30;30.30;;;;;;;1.16;94.89;100340.36;103959;1313;24197;-25
2021/12/13 09:51:41;;;;;;;77.40;33.30;;;;;;;1.17;95.06;100339.55;104235;1313;22732;-25
2021/12/13 09:54:08;;;;;;;78.20;31.80;;;;;;;1.17;94.99;100335.17;104016;1307;22516;-30
2021/12/13 09:56:36;;;;;;;83.40;34.20;;;;;;;1.24;95.76;100336.59;103867;1314;24128;-30
2021/12/13 09:59:11;;;;;;;84.40;35.40;;;;;;;1.47;95.97;100336.48;103913;1316;22594;-25
2021/12/13 10:01:37;;;;;;;71.60;29.40;;;;;;;1.63;95.62;100338.60;104023;1301;22742;-24
2021/12/13 10:04:09;;;;;;;78.20;32.90;;;;;;;1.85;95.80;100335.51;103871;1314;24144;-25
2021/12/13 10:06:40;;;;;;;65.90;32.30;;;;;;;2.01;95.37;100338.86;103868;1315;22594;-25
2021/12/13 10:09:09;;;;;;;74.90;33.60;;;;;;;1.99;94.20;100336.01;103949;1314;22689;-25
2021/12/13 10:11:40;;;;;;;67.60;30.10;;;;;;;1.89;93.93;100339.45;103990;1315;22451;-25
2021/12/13 10:14:07;;;;;;;71.40;33.00;;;;;;;1.92;94.57;100342.79;103929;1310;24103;-30
2021/12/13 10:16:34;;;;;;;68.30;31.70;;;;;;;1.92;94.10;100347.48;104123;1314;24126;-30
2021/12/13 10:19:00;;;;;;;66.20;29.90;;;;;;;2.00;93.83;100348.18;104208;1315;22445;-29
2021/12/13 10:21:29;;;;;;;63.70;27.80;;;;;;;2.07;93.68;100347.43;103935;1314;22461;-25
2021/12/13 10:23:57;;;;;;;66.80;33.40;;;;;;;2.16;93.25;100343.36;104127;1314;24371;-24
2021/12/13 10:26:27;;;;;;;84.50;34.80;;;;;;;2.28;93.17;100340.97;104124;1314;22472;-30
2021/12/13 10:28:55;;;;;;;98.80;43.30;;;;;;;2.24;93.88;100339.71;103913;1314;22488;-25
2021/12/13 10:31:27;;;;;;;196.80;46.90;;;;;;;2.29;93.70;100338.07;104070;1314;24990;-25
2021/12/13 10:33:54;;;;;;;126.10;36.60;;;;;;;2.22;93.99;100341.86;104058;1316;22443;-30
2021/12/13 10:36:19;;;;;;;82.20;37.30;;;;;;;2.22;94.18;100342.34;103782;1315;22591;-30
2021/12/13 10:38:49;;;;;;;78.70;33.20;;;;;;;2.18;92.88;100346.58;103871;1307;24158;-30
2021/12/13 10:41:19;;;;;;;75.60;29.10;;;;;;;2.19;93.10;100343.69;103876;1314;24221;-25
2021/12/13 10:43:48;;;;;;;86.80;35.90;;;;;;;2.20;92.56;100344.77;104001;1310;22837;-25
2021/12/13 10:46:18;;;;;;;93.20;35.00;;;;;;;2.03;92.83;100351.09;104058;1314;24270;-30
2021/12/13 10:48:49;;;;;;;72.70;29.20;;;;;;;1.97;92.86;100355.42;104038;1314;22494;-25
2021/12/13 10:51:19;;;;;;;85.60;34.00;;;;;;;1.92;92.64;100357.21;104156;1314;22755;-30
2021/12/13 10:53:46;;;;;;;87.20;35.30;;;;;;;1.89;92.89;100355.91;104066;1307;22541;-30
2021/12/13 10:56:19;;;;;;;75.30;35.80;;;;;;;1.86;93.35;100351.55;103980;1314;23799;-30
2021/12/13 10:58:48;;;;;;;114.80;53.90;;;;;;;1.91;93.11;100351.63;103927;1314;22527;-30
2021/12/13 11:01:16;;;;;;;105.80;40.50;;;;;;;1.76;93.32;100353.36;103976;1313;22437;-24
2021/12/13 11:03:43;;;;;;;97.20;36.40;;;;;;;1.76;93.59;100352.80;103943;1314;24162;-30
2021/12/13 11:06:09;;;;;;;80.50;34.90;;;;;;;1.91;94.29;100351.87;104094;1314;22737;-25
2021/12/13 11:08:41;;;;;;;93.30;33.20;;;;;;;1.93;93.63;100350.30;104142;1314;23215;-30
2021/12/13 11:11:13;;;;;;;71.50;27.30;;;;;;;1.96;93.64;100351.66;104028;1314;23770;-30
2021/12/13 11:13:39;;;;;;;99.80;34.50;;;;;;;1.94;93.88;100351.98;103977;1316;24143;-25
2021/12/13 11:16:10;;;;;;;99.40;35.60;;;;;;;1.94;93.79;100350.21;103906;1308;22640;-29
2021/12/13 11:18:35;;;;;;;79.70;35.80;;;;;;;1.96;93.97;100355.52;104047;1305;24136;-30